Time;durP1;ratioP1;P1;durP2;ratioP2;P2;SDS_P1;SDS_P2;PMS_P1;PMS_P2;Temp;Humidity;BMP_temperature;BMP_pressure;BME280_temperature;BME280_humidity;BME280_pressure;Samples;Min_cycle;Max_cycle;Signal;HPM_P1;HPM_P2
2023/05/24 00:00:12;;;;;;;16.75;3.63;;;;;;;10.07;76.44;101071.81;5064150;28;20056;-51
2023/05/24 00:02:42;;;;;;;18.27;4.57;;;;;;;10.05;75.86;101064.03;5063795;28;20060;-58
2023/05/24 00:05:10;;;;;;;21.98;3.97;;;;;;;10.03;76.39;101065.84;5048406;28;20131;-58
2023/05/24 00:07:37;;;;;;;13.80;3.80;;;;;;;10.00;76.92;101071.28;5066205;28;20045;-56
2023/05/24 00:10:05;;;;;;;19.30;3.22;;;;;;;10.01;76.42;101061.63;5063278;28;20055;-55
2023/05/24 00:12:32;;;;;;;15.07;3.53;;;;;;;10.00;76.00;101070.44;5070785;28;20218;-59
2023/05/24 00:15:00;;;;;;;23.58;5.22;;;;;;;10.03;75.74;101073.75;5067649;28;20400;-57
2023/05/24 00:17:29;;;;;;;20.80;4.40;;;;;;;10.03;76.45;101079.00;5066479;28;20052;-56
2023/05/24 00:19:56;;;;;;;19.90;3.38;;;;;;;10.03;76.50;101078.16;5068541;28;20048;-54
2023/05/24 00:22:23;;;;;;;16.48;4.15;;;;;;;10.06;75.75;101080.66;5064322;28;20048;-57
2023/05/24 00:24:51;;;;;;;16.77;3.83;;;;;;;10.04;75.57;101080.75;5063083;28;20044;-55
2023/05/24 00:27:18;;;;;;;14.68;2.85;;;;;;;10.01;76.35;101080.88;5066593;28;20561;-56
2023/05/24 00:29:45;;;;;;;16.45;3.58;;;;;;;10.01;75.76;101077.41;5068669;28;20056;-53
2023/05/24 00:32:12;;;;;;;16.15;4.00;;;;;;;9.96;75.61;101084.66;5069155;28;20134;-55
2023/05/24 00:34:40;;;;;;;14.10;3.15;;;;;;;9.95;75.53;101081.19;5066850;28;20126;-57
2023/05/24 00:37:07;;;;;;;12.02;3.65;;;;;;;9.95;75.56;101073.31;5068635;28;20056;-55
2023/05/24 00:39:35;;;;;;;18.95;3.80;;;;;;;9.94;75.54;101071.56;5066334;28;20057;-55
2023/05/24 00:42:03;;;;;;;16.13;3.33;;;;;;;9.96;75.38;101068.88;5066833;28;20044;-51
2023/05/24 00:44:30;;;;;;;19.33;4.35;;;;;;;9.95;75.05;101070.66;5070481;28;20044;-55
2023/05/24 00:46:58;;;;;;;21.48;3.67;;;;;;;9.92;75.67;101075.22;5068356;28;20059;-57
2023/05/24 00:49:25;;;;;;;14.70;4.07;;;;;;;9.90;75.26;101072.66;5070358;28;20052;-58
2023/05/24 00:51:53;;;;;;;17.38;3.83;;;;;;;9.92;75.50;101078.69;5063938;28;20053;-55
2023/05/24 00:54:20;;;;;;;26.02;4.15;;;;;;;9.90;74.98;101085.78;5052507;28;20060;-55
2023/05/24 00:56:48;;;;;;;18.73;4.20;;;;;;;9.95;74.65;101073.31;5066552;28;20044;-58
2023/05/24 00:59:15;;;;;;;13.15;3.45;;;;;;;9.90;75.01;101070.00;5068467;28;20604;-60
2023/05/24 01:01:45;;;;;;;18.80;3.88;;;;;;;9.90;75.47;101075.28;5060421;28;20163;-55
2023/05/24 01:04:13;;;;;;;27.17;4.40;;;;;;;9.92;75.47;101076.06;5067163;28;20106;-56
2023/05/24 01:07:17;;;;;;;14.30;3.70;;;;;;;9.94;75.38;101071.56;5060763;28;20059;-53
2023/05/24 01:10:07;;;;;;;16.40;3.08;;;;;;;9.95;74.99;101073.31;5057367;28;20152;-56
2023/05/24 01:12:43;;;;;;;12.75;2.92;;;;;;;9.98;74.70;101075.75;5047399;28;20404;-58
2023/05/24 01:15:47;;;;;;;21.55;4.30;;;;;;;9.97;75.37;101078.47;5060874;28;20393;-53
2023/05/24 01:18:20;;;;;;;14.90;3.08;;;;;;;10.02;74.14;101090.47;5046705;28;20044;-54
2023/05/24 01:20:51;;;;;;;16.52;3.33;;;;;;;9.96;74.18;101077.63;5065551;28;20048;-57
2023/05/24 01:23:21;;;;;;;11.88;2.75;;;;;;;9.94;74.96;101076.84;5037696;28;20125;-56
2023/05/24 01:25:58;;;;;;;20.50;4.40;;;;;;;9.99;74.61;101092.38;5058680;28;20066;-56
2023/05/24 01:28:26;;;;;;;16.77;4.45;;;;;;;10.03;74.64;101079.00;5048982;28;20044;-57
2023/05/24 01:30:53;;;;;;;14.90;2.88;;;;;;;10.02;74.32;101085.19;5067820;23;20073;-57
2023/05/24 01:33:21;;;;;;;22.67;4.25;;;;;;;10.03;74.33;101088.69;5064512;28;20084;-58
2023/05/24 01:35:48;;;;;;;11.10;3.45;;;;;;;10.02;74.24;101074.69;5060296;28;20163;-55
2023/05/24 01:38:15;;;;;;;14.82;3.05;;;;;;;10.07;74.01;101090.22;5066349;28;20051;-58
2023/05/24 01:40:46;;;;;;;20.55;3.90;;;;;;;10.03;73.56;101086.06;5054879;28;20052;-60
2023/05/24 01:43:22;;;;;;;14.82;3.00;;;;;;;9.99;74.04;101095.88;5046287;28;20044;-58
2023/05/24 01:46:02;;;;;;;16.52;4.00;;;;;;;9.99;74.34;101090.59;5044044;28;20065;-57
2023/05/24 01:48:37;;;;;;;14.98;3.25;;;;;;;9.95;74.54;101083.81;5043091;28;20068;-59
2023/05/24 01:51:06;;;;;;;16.73;3.67;;;;;;;9.99;73.87;101087.97;5039642;28;20133;-58
2023/05/24 01:53:35;;;;;;;12.40;3.13;;;;;;;9.99;74.17;101085.34;5048122;28;20376;-59
2023/05/24 01:56:04;;;;;;;14.82;3.05;;;;;;;10.01;74.21;101088.78;5043387;28;20053;-60
2023/05/24 01:58:32;;;;;;;10.13;3.15;;;;;;;10.00;73.96;101088.84;5046115;28;20053;-60
2023/05/24 02:01:00;;;;;;;15.90;3.38;;;;;;;10.02;73.98;101086.97;5068236;28;20563;-59
2023/05/24 02:03:27;;;;;;;12.52;3.10;;;;;;;10.03;73.79;101092.16;5062056;28;20052;-59
2023/05/24 02:05:54;;;;;;;12.93;2.75;;;;;;;10.03;74.61;101086.91;5047384;28;20409;-59
2023/05/24 02:08:22;;;;;;;14.70;2.70;;;;;;;10.06;74.44;101091.16;5047944;28;20081;-58
2023/05/24 02:10:49;;;;;;;13.45;2.90;;;;;;;10.05;75.29;101092.09;5046172;28;20091;-57
2023/05/24 02:13:18;;;;;;;14.52;3.15;;;;;;;10.08;74.99;101095.41;5048636;28;20049;-58
2023/05/24 02:15:46;;;;;;;14.60;3.17;;;;;;;10.07;75.36;101088.44;5047540;28;20067;-59
2023/05/24 02:18:13;;;;;;;14.50;3.47;;;;;;;10.04;75.70;101088.63;5046555;28;20041;-59
2023/05/24 02:20:41;;;;;;;13.80;3.35;;;;;;;10.03;76.70;101081.63;5045769;28;20049;-60
2023/05/24 02:23:08;;;;;;;18.05;3.67;;;;;;;10.03;76.81;101084.28;5048240;28;20560;-59
2023/05/24 02:25:35;;;;;;;14.90;3.17;;;;;;;9.99;76.69;101087.13;5045217;28;20084;-60
2023/05/24 02:28:03;;;;;;;20.48;4.15;;;;;;;10.01;76.70;101093.19;5042598;28;20076;-59
2023/05/24 02:30:30;;;;;;;11.27;3.30;;;;;;;10.03;76.75;101086.91;5046552;28;20048;-59
2023/05/24 02:32:57;;;;;;;15.80;3.67;;;;;;;10.05;77.04;101089.47;5053921;28;20279;-60
2023/05/24 02:35:25;;;;;;;17.13;3.80;;;;;;;9.99;77.01;101087.97;5063712;28;20365;-60
2023/05/24 02:37:52;;;;;;;19.13;3.55;;;;;;;9.97;77.33;101089.00;5041599;28;20056;-60
2023/05/24 02:40:19;;;;;;;13.02;3.70;;;;;;;9.95;77.52;101089.06;5043699;28;20063;-59
2023/05/24 02:42:46;;;;;;;18.30;3.53;;;;;;;9.94;77.59;101087.34;5050578;28;20517;-58
2023/05/24 02:45:13;;;;;;;15.88;3.53;;;;;;;9.96;77.58;101079.41;5051637;28;20052;-58
2023/05/24 02:47:40;;;;;;;22.15;4.68;;;;;;;9.94;77.61;101079.47;5047046;28;20057;-60
2023/05/24 02:50:08;;;;;;;19.98;3.72;;;;;;;9.94;77.77;101084.72;5052628;28;20303;-59
2023/05/24 02:52:35;;;;;;;15.70;3.88;;;;;;;9.89;78.24;101084.09;5048185;28;20053;-58
2023/05/24 02:55:03;;;;;;;15.88;4.20;;;;;;;9.89;78.48;101081.47;5043218;28;20059;-58
2023/05/24 02:57:33;;;;;;;22.38;4.35;;;;;;;9.85;78.62;101087.81;5047187;28;20053;-58
2023/05/24 03:00:00;;;;;;;13.25;3.35;;;;;;;9.83;78.55;101085.25;5041726;28;20045;-59
2023/05/24 03:02:28;;;;;;;20.27;4.18;;;;;;;9.86;78.64;101092.13;5044407;28;20053;-58
2023/05/24 03:04:55;;;;;;;15.32;3.53;;;;;;;9.85;78.55;101086.03;5045373;28;20135;-58
2023/05/24 03:07:22;;;;;;;15.80;4.43;;;;;;;9.85;78.60;101087.81;5041322;28;20061;-59
2023/05/24 03:09:49;;;;;;;15.60;3.30;;;;;;;9.85;78.79;101086.03;5046885;28;20049;-58
2023/05/24 03:12:17;;;;;;;18.88;3.65;;;;;;;9.82;79.19;101088.81;5048482;28;20352;-59
2023/05/24 03:14:44;;;;;;;18.88;4.60;;;;;;;9.83;79.29;101089.66;5046840;28;20171;-58
2023/05/24 03:17:11;;;;;;;25.50;4.05;;;;;;;9.76;80.20;101086.47;5031183;28;20057;-59
2023/05/24 03:19:38;;;;;;;26.73;4.82;;;;;;;9.77;79.93;101090.81;5038452;28;20049;-59
2023/05/24 03:22:05;;;;;;;19.25;3.83;;;;;;;9.75;80.64;101083.91;5042312;28;20053;-58
2023/05/24 03:24:33;;;;;;;21.45;3.90;;;;;;;9.68;80.79;101086.00;5048937;28;20172;-59
2023/05/24 03:27:01;;;;;;;16.65;4.75;;;;;;;9.64;81.07;101087.91;5044239;28;20045;-59
2023/05/24 03:29:28;;;;;;;17.08;4.47;;;;;;;9.65;80.89;101091.41;5050381;28;20071;-59
2023/05/24 03:31:55;;;;;;;17.80;4.78;;;;;;;9.62;80.69;101105.53;5051647;28;20063;-58
2023/05/24 03:34:22;;;;;;;25.15;4.85;;;;;;;9.62;80.93;101095.00;5052194;28;20056;-60
2023/05/24 03:36:50;;;;;;;25.05;4.72;;;;;;;9.60;81.18;101094.25;5048801;28;20045;-60
2023/05/24 03:39:17;;;;;;;29.00;6.38;;;;;;;9.61;81.33;101095.94;5050403;28;20049;-60
2023/05/24 03:41:44;;;;;;;17.52;4.32;;;;;;;9.62;80.47;101100.28;5061172;28;20053;-60
2023/05/24 03:44:12;;;;;;;27.58;4.88;;;;;;;9.60;81.20;101107.38;5047918;28;20048;-59
2023/05/24 03:46:39;;;;;;;19.52;4.30;;;;;;;9.57;80.86;101101.41;5051152;28;20625;-59
2023/05/24 03:49:06;;;;;;;20.23;4.82;;;;;;;9.59;81.19;101105.69;5051034;28;20446;-61
2023/05/24 03:51:35;;;;;;;26.33;5.13;;;;;;;9.62;80.78;101110.78;5045229;28;20053;-60
2023/05/24 03:54:02;;;;;;;17.60;4.50;;;;;;;9.69;81.26;101113.16;5052856;28;20421;-59
2023/05/24 03:56:29;;;;;;;20.15;4.50;;;;;;;9.69;81.00;101116.63;5047526;28;20084;-61
2023/05/24 03:58:59;;;;;;;18.98;4.35;;;;;;;9.72;80.72;101115.59;5049506;28;20048;-59
2023/05/24 04:01:27;;;;;;;24.77;5.47;;;;;;;9.73;81.20;101117.34;5048456;28;20065;-59
2023/05/24 04:04:00;;;;;;;23.63;5.15;;;;;;;9.78;80.64;101117.97;5048229;28;20075;-61
2023/05/24 04:06:28;;;;;;;20.67;4.03;;;;;;;9.83;80.60;101121.22;5049434;28;20075;-60
2023/05/24 04:08:59;;;;;;;16.90;4.43;;;;;;;9.90;80.36;101107.69;5048785;28;20049;-60
2023/05/24 04:11:27;;;;;;;21.10;4.82;;;;;;;9.94;79.24;101111.03;5046773;28;20083;-60
2023/05/24 04:13:54;;;;;;;16.85;4.45;;;;;;;9.95;78.99;101122.38;5044626;28;20434;-59
2023/05/24 04:16:26;;;;;;;20.75;4.55;;;;;;;9.96;79.18;101117.06;5047420;28;20045;-61
2023/05/24 04:18:54;;;;;;;15.38;3.88;;;;;;;9.95;78.44;101117.13;5046655;28;20049;-60
2023/05/24 04:21:21;;;;;;;17.90;3.30;;;;;;;9.96;78.56;101117.06;5051840;28;20057;-61
2023/05/24 04:23:49;;;;;;;13.20;3.75;;;;;;;10.03;78.74;101125.50;5047875;28;20041;-59
2023/05/24 04:26:16;;;;;;;20.50;4.20;;;;;;;10.04;78.24;101124.56;5047747;28;20053;-60
2023/05/24 04:28:47;;;;;;;17.80;4.05;;;;;;;10.06;77.56;101136.75;5045861;28;20120;-60
2023/05/24 04:31:15;;;;;;;14.15;3.40;;;;;;;10.03;77.27;101133.41;5042413;28;20045;-61
2023/05/24 04:33:42;;;;;;;16.88;3.65;;;;;;;10.04;76.33;101125.44;5043103;28;20056;-60
2023/05/24 04:36:10;;;;;;;12.85;3.20;;;;;;;10.07;76.63;101127.91;5051705;28;20501;-59
2023/05/24 04:38:39;;;;;;;15.40;3.90;;;;;;;10.13;76.45;101134.66;5050915;28;20052;-61
2023/05/24 04:41:07;;;;;;;17.60;3.40;;;;;;;10.15;75.62;101125.75;5047294;28;20045;-60
2023/05/24 04:43:34;;;;;;;15.80;3.30;;;;;;;10.22;75.69;101135.97;5048201;28;20049;-58
2023/05/24 04:46:01;;;;;;;14.95;3.25;;;;;;;10.24;75.14;101135.03;5048128;28;20059;-60
2023/05/24 04:48:29;;;;;;;18.15;4.32;;;;;;;10.28;75.12;101138.34;5061529;28;20049;-59
2023/05/24 04:50:57;;;;;;;15.82;3.72;;;;;;;10.27;75.03;101137.50;5053618;28;20048;-61
2023/05/24 04:53:24;;;;;;;20.15;4.80;;;;;;;10.29;74.18;101146.16;5047255;28;20136;-61
2023/05/24 04:55:52;;;;;;;18.90;3.97;;;;;;;10.25;74.58;101152.50;5051329;28;20060;-60
2023/05/24 04:58:19;;;;;;;20.58;4.00;;;;;;;10.20;74.73;101151.84;5046243;28;20048;-60
2023/05/24 05:00:46;;;;;;;21.00;4.05;;;;;;;10.25;75.12;101154.28;5052849;28;20521;-60
2023/05/24 05:03:14;;;;;;;24.33;5.18;;;;;;;10.27;74.79;101155.09;5056905;28;20051;-60
2023/05/24 05:05:42;;;;;;;18.08;5.07;;;;;;;10.29;75.17;101163.75;5048407;28;20067;-59
2023/05/24 05:08:09;;;;;;;23.92;4.97;;;;;;;10.25;74.71;101159.56;5046191;28;20045;-62
2023/05/24 05:10:36;;;;;;;21.27;4.93;;;;;;;10.27;74.93;101162.97;5044112;28;20079;-59
2023/05/24 05:13:03;;;;;;;19.58;4.85;;;;;;;10.33;74.27;101166.16;5044215;28;20148;-58
2023/05/24 05:15:31;;;;;;;19.65;4.50;;;;;;;10.37;74.22;101169.47;5049931;28;20053;-60
2023/05/24 05:17:59;;;;;;;22.58;4.75;;;;;;;10.42;74.84;101175.38;5050228;28;20440;-59
2023/05/24 05:20:26;;;;;;;25.08;4.45;;;;;;;10.42;73.89;101177.16;5046365;28;20504;-59
2023/05/24 05:22:53;;;;;;;29.10;5.10;;;;;;;10.41;73.98;101178.94;5046487;28;20094;-61
2023/05/24 05:25:21;;;;;;;23.42;5.00;;;;;;;10.43;74.08;101178.84;5042076;28;20063;-59
2023/05/24 05:27:48;;;;;;;18.48;5.10;;;;;;;10.39;73.76;101179.00;5039040;28;20057;-61
2023/05/24 05:30:15;;;;;;;25.50;4.80;;;;;;;10.42;72.96;101178.00;5041187;28;20044;-58
2023/05/24 05:32:42;;;;;;;18.42;5.38;;;;;;;10.37;73.75;101185.28;5048122;28;20061;-61
2023/05/24 05:35:10;;;;;;;17.90;4.03;;;;;;;10.43;73.63;101189.38;5046880;28;20049;-60
2023/05/24 05:37:37;;;;;;;27.20;5.70;;;;;;;10.38;73.38;101200.13;5040515;28;20058;-57
2023/05/24 05:40:04;;;;;;;24.15;4.72;;;;;;;10.16;73.34;101192.38;5041434;28;20067;-61
2023/05/24 05:42:32;;;;;;;23.00;4.55;;;;;;;10.19;73.96;101191.41;5041039;28;20055;-58
2023/05/24 05:44:59;;;;;;;29.45;5.97;;;;;;;10.12;73.50;101196.94;5046585;28;20057;-61
2023/05/24 05:47:26;;;;;;;22.30;5.70;;;;;;;10.20;73.78;101199.22;5050054;28;20048;-60
2023/05/24 05:49:53;;;;;;;27.27;5.20;;;;;;;10.17;73.65;101207.25;5040610;28;20048;-60
2023/05/24 05:52:21;;;;;;;21.23;5.30;;;;;;;10.20;73.90;101206.25;5040933;28;20048;-59
2023/05/24 05:54:48;;;;;;;26.25;5.13;;;;;;;10.24;73.66;101203.44;5047152;28;20071;-59
2023/05/24 05:57:18;;;;;;;23.63;5.43;;;;;;;10.35;73.19;101210.78;5044341;28;20056;-57
2023/05/24 05:59:45;;;;;;;25.45;5.85;;;;;;;10.48;73.01;101214.53;5041064;28;20057;-59
2023/05/24 06:02:12;;;;;;;25.90;6.20;;;;;;;10.56;73.02;101206.28;5047877;28;20477;-61
2023/05/24 06:04:40;;;;;;;36.45;6.47;;;;;;;10.54;72.46;101210.78;5051684;28;20226;-61
2023/05/24 06:07:07;;;;;;;29.70;6.60;;;;;;;10.51;72.62;101210.91;5057401;28;20140;-60
2023/05/24 06:09:34;;;;;;;23.95;5.60;;;;;;;10.56;72.83;101211.53;5050551;28;20045;-60
2023/05/24 06:12:01;;;;;;;23.33;5.63;;;;;;;10.64;72.88;101212.00;5043932;28;20421;-60
2023/05/24 06:14:29;;;;;;;34.03;5.97;;;;;;;10.76;72.30;101216.69;5045199;28;20512;-60
2023/05/24 06:16:57;;;;;;;25.40;6.40;;;;;;;10.87;71.73;101216.13;5050780;28;20048;-60
2023/05/24 06:19:26;;;;;;;21.17;5.07;;;;;;;10.88;71.48;101217.81;5047364;28;20501;-62
2023/05/24 06:21:54;;;;;;;27.90;5.72;;;;;;;10.78;71.37;101222.72;5048304;28;20059;-59
2023/05/24 06:24:21;;;;;;;24.27;6.63;;;;;;;10.82;71.67;101233.94;5040073;28;20061;-57
2023/05/24 06:26:51;;;;;;;24.88;6.03;;;;;;;10.93;71.90;101236.03;5042972;28;20049;-58
2023/05/24 06:29:20;;;;;;;23.83;6.18;;;;;;;10.98;71.90;101232.22;5045798;28;20064;-60
2023/05/24 06:31:48;;;;;;;30.50;6.70;;;;;;;11.00;71.39;101238.28;5054206;28;20049;-60
2023/05/24 06:34:17;;;;;;;33.70;6.95;;;;;;;10.98;71.66;101228.75;5048310;28;20517;-59
2023/05/24 06:36:46;;;;;;;24.85;5.45;;;;;;;11.00;71.62;101232.16;5047012;28;20386;-56
2023/05/24 06:39:14;;;;;;;35.17;6.47;;;;;;;11.00;71.51;101240.91;5046126;28;20421;-59
2023/05/24 06:41:43;;;;;;;28.27;7.45;;;;;;;11.03;71.84;101232.88;5043973;28;20060;-62
2023/05/24 06:44:10;;;;;;;27.75;5.82;;;;;;;11.07;71.56;101244.06;5044226;28;20041;-58
2023/05/24 06:46:38;;;;;;;21.10;5.32;;;;;;;11.07;71.42;101241.44;5044998;28;20071;-59
2023/05/24 06:49:05;;;;;;;25.50;6.35;;;;;;;11.13;71.76;101255.16;5043287;28;20055;-57
2023/05/24 06:51:33;;;;;;;30.30;6.75;;;;;;;11.39;71.52;101253.84;5046401;28;20045;-57
2023/05/24 06:54:00;;;;;;;31.75;6.03;;;;;;;11.46;71.06;101256.97;5048496;28;20051;-58
2023/05/24 06:56:27;;;;;;;25.50;5.72;;;;;;;11.51;70.74;101260.22;5046241;28;20052;-60
2023/05/24 06:58:55;;;;;;;29.33;5.80;;;;;;;11.49;70.37;101267.38;5046755;28;20041;-57
2023/05/24 07:01:23;;;;;;;25.13;5.35;;;;;;;11.38;70.59;101260.00;5046007;28;20053;-59
2023/05/24 07:03:50;;;;;;;24.85;6.18;;;;;;;11.27;70.89;101256.25;5046313;28;20072;-59
2023/05/24 07:06:17;;;;;;;29.35;6.50;;;;;;;11.25;71.33;101258.09;5048239;28;20055;-60
2023/05/24 07:08:45;;;;;;;28.63;6.55;;;;;;;11.19;71.49;101263.69;5046403;28;20159;-58
2023/05/24 07:11:12;;;;;;;35.35;7.68;;;;;;;11.17;71.74;101261.16;5044455;28;20532;-58
2023/05/24 07:13:39;;;;;;;31.90;7.22;;;;;;;11.19;71.80;101261.06;5042779;28;20382;-58
2023/05/24 07:16:07;;;;;;;31.38;6.30;;;;;;;11.29;71.42;101263.13;5053076;28;20056;-59
2023/05/24 07:18:34;;;;;;;24.23;6.50;;;;;;;11.44;70.68;101266.78;5053415;28;20341;-59
2023/05/24 07:21:01;;;;;;;32.75;7.25;;;;;;;11.56;70.81;101267.91;5052735;28;20136;-59
2023/05/24 07:23:29;;;;;;;26.58;6.70;;;;;;;11.69;69.79;101273.38;5051954;28;20147;-60
2023/05/24 07:25:56;;;;;;;25.10;6.47;;;;;;;11.80;69.62;101274.53;5049755;28;20049;-59
2023/05/24 07:28:23;;;;;;;33.20;7.53;;;;;;;11.84;69.85;101280.50;5045233;28;20084;-59
2023/05/24 07:30:50;;;;;;;24.80;6.93;;;;;;;12.02;69.47;101279.53;5050597;28;20063;-60
2023/05/24 07:33:18;;;;;;;33.97;6.85;;;;;;;12.12;68.75;101282.50;5051427;28;20170;-61
2023/05/24 07:35:50;;;;;;;29.92;6.40;;;;;;;11.98;68.40;101287.66;5048691;28;20060;-60
2023/05/24 07:38:17;;;;;;;25.10;7.07;;;;;;;12.07;68.92;101288.03;5050048;28;20072;-57
2023/05/24 07:40:45;;;;;;;21.75;5.72;;;;;;;12.20;68.16;101292.63;5049901;28;20064;-59
2023/05/24 07:43:12;;;;;;;30.27;6.32;;;;;;;12.28;67.68;101293.06;5045874;28;20057;-59
2023/05/24 07:45:39;;;;;;;30.55;7.28;;;;;;;12.31;68.31;101292.91;5049178;28;20509;-59
2023/05/24 07:48:06;;;;;;;25.20;7.38;;;;;;;12.34;68.24;101288.31;5048140;28;20053;-58
2023/05/24 07:50:34;;;;;;;28.13;5.50;;;;;;;12.44;67.16;101298.34;5046399;28;21743;-59
2023/05/24 07:53:04;;;;;;;22.65;6.28;;;;;;;12.49;66.61;101299.78;5049640;28;20048;-61
2023/05/24 07:55:31;;;;;;;24.42;6.25;;;;;;;12.60;66.50;101300.03;5049984;28;20045;-59
2023/05/24 07:57:58;;;;;;;22.92;6.32;;;;;;;12.59;65.63;101311.53;5048708;28;20061;-57
2023/05/24 08:00:25;;;;;;;17.58;5.18;;;;;;;12.50;66.22;101314.69;5047320;28;20079;-57
2023/05/24 08:02:53;;;;;;;24.42;5.40;;;;;;;12.29;66.75;101316.75;5049051;28;20087;-61
2023/05/24 08:05:20;;;;;;;23.35;6.05;;;;;;;12.18;67.59;101315.63;5049290;28;20068;-59
2023/05/24 08:07:48;;;;;;;33.42;7.82;;;;;;;12.36;67.26;101314.63;5054035;28;20144;-59
2023/05/24 08:10:15;;;;;;;19.30;5.13;;;;;;;12.50;66.77;101308.56;5040649;28;20051;-58
2023/05/24 08:12:42;;;;;;;23.73;6.32;;;;;;;12.52;67.07;101304.91;5044118;28;20153;-60
2023/05/24 08:15:10;;;;;;;34.97;7.70;;;;;;;12.39;67.01;101314.44;5045711;28;20057;-58
2023/05/24 08:17:38;;;;;;;33.95;6.70;;;;;;;12.38;67.22;101310.97;5048923;28;20063;-60
2023/05/24 08:20:07;;;;;;;26.77;6.70;;;;;;;12.41;67.60;101313.41;5049321;28;20051;-57
2023/05/24 08:22:36;;;;;;;19.73;5.80;;;;;;;12.44;67.54;101319.47;5049775;28;20120;-60
2023/05/24 08:25:03;;;;;;;30.05;7.50;;;;;;;12.31;67.44;101320.16;5046798;28;20401;-58
2023/05/24 08:27:31;;;;;;;22.23;6.30;;;;;;;12.30;67.58;101330.81;5048327;28;20464;-61
2023/05/24 08:29:58;;;;;;;30.20;5.78;;;;;;;12.37;67.03;101325.06;5044439;28;20044;-58
2023/05/24 08:32:26;;;;;;;21.75;5.68;;;;;;;12.41;67.24;101326.63;5066769;28;20606;-60
2023/05/24 08:34:54;;;;;;;24.60;5.53;;;;;;;12.24;67.44;101329.31;5041328;28;20088;-60
2023/05/24 08:37:37;;;;;;;20.13;6.25;;;;;;;12.21;67.67;101329.53;5043979;28;20048;-59
2023/05/24 08:40:04;;;;;;;27.85;6.40;;;;;;;12.36;67.58;101330.47;5047543;28;20048;-59
2023/05/24 08:42:32;;;;;;;24.55;6.30;;;;;;;12.44;66.52;101333.53;5049285;28;20051;-61
2023/05/24 08:45:18;;;;;;;24.85;5.78;;;;;;;12.31;67.31;101332.50;5044575;28;20057;-58
2023/05/24 08:47:45;;;;;;;23.45;6.68;;;;;;;12.04;67.80;101329.56;5043648;28;20523;-60
2023/05/24 08:50:12;;;;;;;20.95;6.20;;;;;;;12.22;67.82;101333.84;5048065;28;20055;-59
2023/05/24 08:52:41;;;;;;;33.03;8.52;;;;;;;12.16;67.01;101335.03;5047139;28;20163;-61
2023/05/24 08:55:08;;;;;;;27.10;6.68;;;;;;;12.21;67.06;101339.22;5051597;28;20524;-60
2023/05/24 08:57:40;;;;;;;27.95;6.75;;;;;;;12.25;67.48;101338.09;5042488;28;20052;-62
2023/05/24 09:00:10;;;;;;;28.02;7.35;;;;;;;12.27;68.18;101341.53;5042261;28;20049;-60
2023/05/24 09:02:39;;;;;;;22.83;6.25;;;;;;;12.41;67.94;101346.91;5049009;28;20050;-60
2023/05/24 09:05:11;;;;;;;19.13;6.32;;;;;;;12.56;67.37;101353.09;5038373;28;20053;-61
2023/05/24 09:07:39;;;;;;;21.80;6.90;;;;;;;12.66;66.68;101351.69;5046401;28;20604;-60
2023/05/24 09:10:08;;;;;;;20.38;6.13;;;;;;;12.69;66.35;101354.13;5046395;28;20067;-61
2023/05/24 09:12:36;;;;;;;24.13;6.32;;;;;;;12.67;66.19;101366.59;5041656;28;20086;-61
2023/05/24 09:15:06;;;;;;;21.80;5.88;;;;;;;12.73;66.48;101350.38;5042556;28;20045;-61
2023/05/24 09:17:35;;;;;;;24.15;6.82;;;;;;;12.91;66.47;101346.69;5050895;28;20139;-58
2023/05/24 09:20:07;;;;;;;20.83;6.40;;;;;;;12.79;65.33;101355.34;5041317;28;20060;-60
2023/05/24 09:22:39;;;;;;;21.55;6.00;;;;;;;12.87;65.42;101357.53;5045725;28;20044;-59
2023/05/24 09:25:11;;;;;;;19.23;5.25;;;;;;;12.99;64.44;101356.84;5045580;28;20056;-61
2023/05/24 09:27:38;;;;;;;28.27;6.28;;;;;;;12.84;64.61;101355.94;5039666;28;20051;-58
2023/05/24 09:30:09;;;;;;;31.48;6.30;;;;;;;12.79;64.46;101355.34;5043677;28;20057;-61
2023/05/24 09:32:37;;;;;;;22.33;4.90;;;;;;;12.96;64.03;101350.88;5047317;28;20053;-61
2023/05/24 09:35:08;;;;;;;21.77;6.32;;;;;;;13.16;63.95;101347.94;5044206;28;20124;-61
2023/05/24 09:37:37;;;;;;;23.13;5.97;;;;;;;13.34;63.35;101349.53;5047086;28;20061;-58
2023/05/24 09:40:07;;;;;;;21.65;5.75;;;;;;;13.28;62.70;101351.66;5049031;28;20048;-60
2023/05/24 09:42:34;;;;;;;19.23;5.65;;;;;;;13.30;63.35;101355.09;5045734;28;20662;-59
2023/05/24 09:45:06;;;;;;;23.55;5.97;;;;;;;13.35;62.69;101359.16;5044683;28;20057;-61
2023/05/24 09:47:35;;;;;;;19.02;4.90;;;;;;;13.33;62.54;101352.28;5048290;28;20055;-60
2023/05/24 09:50:04;;;;;;;16.45;4.82;;;;;;;13.47;62.63;101357.59;5060510;28;20116;-60
2023/05/24 09:52:35;;;;;;;30.05;6.63;;;;;;;13.50;62.45;101360.03;5043286;28;20242;-63
2023/05/24 09:55:16;;;;;;;20.13;5.43;;;;;;;13.39;62.79;101359.84;5044447;28;20051;-59
2023/05/24 09:58:00;;;;;;;16.30;5.63;;;;;;;13.45;62.91;101364.75;5046080;28;20057;-61
2023/05/24 10:00:27;;;;;;;20.23;5.75;;;;;;;13.50;62.47;101365.34;5042280;28;20456;-61
2023/05/24 10:03:02;;;;;;;13.48;4.60;;;;;;;13.51;62.95;101367.06;5047025;28;20053;-62
2023/05/24 10:05:30;;;;;;;23.02;5.10;;;;;;;13.74;61.70;101373.63;5041213;28;20053;-59
2023/05/24 10:07:57;;;;;;;24.92;5.63;;;;;;;13.82;60.56;101373.13;5046290;28;20067;-61
2023/05/24 10:10:29;;;;;;;12.73;4.78;;;;;;;13.68;60.75;101377.47;5044480;28;20131;-60
2023/05/24 10:12:57;;;;;;;18.35;4.32;;;;;;;13.83;60.13;101385.44;5049430;28;20152;-63
2023/05/24 10:15:25;;;;;;;14.77;4.35;;;;;;;14.00;59.10;101384.41;5049431;28;20057;-61
2023/05/24 10:17:54;;;;;;;17.58;3.78;;;;;;;13.93;58.54;101379.50;5050311;28;20053;-61
2023/05/24 10:20:23;;;;;;;12.90;4.63;;;;;;;13.97;58.49;101379.31;5050098;28;20056;-60
2023/05/24 10:22:58;;;;;;;13.43;3.78;;;;;;;14.24;58.21;101366.16;5046187;28;20147;-60
2023/05/24 10:25:27;;;;;;;13.60;4.70;;;;;;;14.39;57.18;101370.50;5043420;28;20048;-60
2023/05/24 10:27:57;;;;;;;16.80;4.85;;;;;;;14.34;57.38;101376.06;5043811;28;20397;-59
2023/05/24 10:30:40;;;;;;;15.68;4.22;;;;;;;14.49;56.83;101384.88;5041385;28;20061;-61
2023/05/24 10:33:08;;;;;;;18.55;4.18;;;;;;;14.58;56.53;101380.81;5038731;28;20041;-60
2023/05/24 10:35:37;;;;;;;18.85;3.90;;;;;;;14.98;56.31;101376.44;5029183;28;20513;-61
2023/05/24 10:38:06;;;;;;;15.85;4.43;;;;;;;15.38;54.52;101381.75;5042841;28;20570;-61
2023/05/24 10:40:34;;;;;;;11.45;3.15;;;;;;;15.40;54.45;101378.06;5046711;28;20638;-60
2023/05/24 10:43:03;;;;;;;14.15;4.10;;;;;;;15.59;53.58;101377.66;5045472;28;20140;-61
2023/05/24 10:45:34;;;;;;;14.52;4.68;;;;;;;15.80;53.36;101385.97;5044242;28;20148;-62
2023/05/24 10:48:14;;;;;;;14.80;3.53;;;;;;;16.13;52.87;101380.16;5052854;28;20058;-61
2023/05/24 10:50:42;;;;;;;14.98;3.67;;;;;;;16.55;51.27;101383.34;5063076;28;20543;-61
2023/05/24 10:53:14;;;;;;;12.55;3.97;;;;;;;16.43;51.15;101385.06;5071756;28;20068;-60
2023/05/24 10:55:56;;;;;;;14.57;3.95;;;;;;;16.68;51.36;101391.31;5054054;28;20130;-61
2023/05/24 10:58:54;;;;;;;15.40;3.78;;;;;;;16.63;49.84;101385.47;5055362;28;20774;-60
2023/05/24 11:01:31;;;;;;;13.30;4.03;;;;;;;16.35;50.49;101387.44;5043579;28;20041;-61
2023/05/24 11:04:10;;;;;;;10.45;3.47;;;;;;;16.46;50.66;101382.22;5048090;28;20048;-60
2023/05/24 11:06:56;;;;;;;11.00;3.55;;;;;;;16.57;50.78;101386.78;5047433;28;20528;-59
2023/05/24 11:09:26;;;;;;;11.15;3.53;;;;;;;16.41;50.40;101383.50;5052533;28;20775;-60
2023/05/24 11:11:55;;;;;;;12.65;4.15;;;;;;;16.20;50.87;101389.38;5050312;28;20128;-61
2023/05/24 11:14:24;;;;;;;12.80;4.05;;;;;;;15.72;52.14;101385.69;5051650;28;20073;-60
2023/05/24 11:16:52;;;;;;;11.40;3.60;;;;;;;15.74;52.36;101383.75;5046900;28;20053;-59
2023/05/24 11:19:27;;;;;;;18.17;4.13;;;;;;;15.81;52.30;101389.50;5049165;28;20059;-60
2023/05/24 11:21:59;;;;;;;15.07;4.40;;;;;;;15.42;52.86;101381.44;5050758;28;20045;-61
2023/05/24 11:24:27;;;;;;;13.93;3.95;;;;;;;15.01;54.07;101380.69;5047145;28;20056;-60
2023/05/24 11:26:55;;;;;;;14.05;3.92;;;;;;;15.02;54.25;101388.53;5048405;28;20390;-61